sensor_id;sensor_type;location;lat;lon;timestamp;temperature;humidity
20560;DHT22;10438;51.454;6.718;2022-07-03T00:00:27;19.50;99.90
20560;DHT22;10438;51.454;6.718;2022-07-03T00:02:53;19.40;99.90
20560;DHT22;10438;51.454;6.718;2022-07-03T00:05:18;19.40;99.90
20560;DHT22;10438;51.454;6.718;2022-07-03T00:07:44;19.40;99.90
20560;DHT22;10438;51.454;6.718;2022-07-03T00:10:09;19.40;99.90
20560;DHT22;10438;51.454;6.718;2022-07-03T00:12:35;19.40;99.90
20560;DHT22;10438;51.454;6.718;2022-07-03T00:15:01;19.40;99.90
20560;DHT22;10438;51.454;6.718;2022-07-03T00:17:26;19.40;99.90
20560;DHT22;10438;51.454;6.718;2022-07-03T00:19:52;19.40;99.90
20560;DHT22;10438;51.454;6.718;2022-07-03T00:22:19;19.40;99.90
20560;DHT22;10438;51.454;6.718;2022-07-03T00:24:50;19.40;99.90
20560;DHT22;10438;51.454;6.718;2022-07-03T00:27:17;19.40;99.90
20560;DHT22;10438;51.454;6.718;2022-07-03T00:29:44;19.40;99.90
20560;DHT22;10438;51.454;6.718;2022-07-03T00:32:12;19.40;99.90
20560;DHT22;10438;51.454;6.718;2022-07-03T00:34:39;19.40;99.90
20560;DHT22;10438;51.454;6.718;2022-07-03T00:37:06;19.40;99.90
20560;DHT22;10438;51.454;6.718;2022-07-03T00:39:36;19.40;99.90
20560;DHT22;10438;51.454;6.718;2022-07-03T00:42:04;19.40;99.90
20560;DHT22;10438;51.454;6.718;2022-07-03T00:44:30;19.30;99.90
20560;DHT22;10438;51.454;6.718;2022-07-03T00:46:58;19.30;99.90
20560;DHT22;10438;51.454;6.718;2022-07-03T00:49:24;19.30;99.90
20560;DHT22;10438;51.454;6.718;2022-07-03T00:51:53;19.30;99.90
20560;DHT22;10438;51.454;6.718;2022-07-03T00:54:22;19.20;99.90
20560;DHT22;10438;51.454;6.718;2022-07-03T00:56:52;19.20;99.90
20560;DHT22;10438;51.454;6.718;2022-07-03T00:59:20;19.10;99.90
20560;DHT22;10438;51.454;6.718;2022-07-03T01:01:47;19.10;99.90
20560;DHT22;10438;51.454;6.718;2022-07-03T01:04:36;19.00;99.90
20560;DHT22;10438;51.454;6.718;2022-07-03T01:07:06;18.90;99.90
20560;DHT22;10438;51.454;6.718;2022-07-03T01:12:25;18.90;99.90
20560;DHT22;10438;51.454;6.718;2022-07-03T01:15:12;18.90;99.90
20560;DHT22;10438;51.454;6.718;2022-07-03T01:17:41;18.90;99.90
20560;DHT22;10438;51.454;6.718;2022-07-03T01:20:11;18.90;99.90
20560;DHT22;10438;51.454;6.718;2022-07-03T01:22:43;18.90;99.90
20560;DHT22;10438;51.454;6.718;2022-07-03T01:25:26;18.90;99.90
20560;DHT22;10438;51.454;6.718;2022-07-03T01:30:44;18.90;99.90
20560;DHT22;10438;51.454;6.718;2022-07-03T01:33:16;18.90;99.90
20560;DHT22;10438;51.454;6.718;2022-07-03T01:38:30;18.80;99.90
20560;DHT22;10438;51.454;6.718;2022-07-03T01:40:57;18.80;99.90
20560;DHT22;10438;51.454;6.718;2022-07-03T01:43:31;18.80;99.90
20560;DHT22;10438;51.454;6.718;2022-07-03T01:45:58;18.80;99.90
20560;DHT22;10438;51.454;6.718;2022-07-03T01:48:26;18.80;99.90
20560;DHT22;10438;51.454;6.718;2022-07-03T01:50:52;18.80;99.90
20560;DHT22;10438;51.454;6.718;2022-07-03T01:53:19;18.80;99.90
20560;DHT22;10438;51.454;6.718;2022-07-03T01:55:46;18.80;99.90
20560;DHT22;10438;51.454;6.718;2022-07-03T01:58:13;18.90;99.90
20560;DHT22;10438;51.454;6.718;2022-07-03T02:00:49;18.80;99.90
20560;DHT22;10438;51.454;6.718;2022-07-03T02:03:26;18.80;99.90
20560;DHT22;10438;51.454;6.718;2022-07-03T02:11:17;18.50;99.90
20560;DHT22;10438;51.454;6.718;2022-07-03T02:13:55;18.50;99.90
20560;DHT22;10438;51.454;6.718;2022-07-03T02:16:25;18.40;99.90
20560;DHT22;10438;51.454;6.718;2022-07-03T02:19:03;18.40;99.90
20560;DHT22;10438;51.454;6.718;2022-07-03T02:21:29;18.30;99.90
20560;DHT22;10438;51.454;6.718;2022-07-03T02:24:19;18.30;99.90
20560;DHT22;10438;51.454;6.718;2022-07-03T02:27:09;18.20;99.90
20560;DHT22;10438;51.454;6.718;2022-07-03T02:30:04;18.10;99.90
20560;DHT22;10438;51.454;6.718;2022-07-03T02:32:33;18.10;99.90
20560;DHT22;10438;51.454;6.718;2022-07-03T02:35:10;18.10;99.90
20560;DHT22;10438;51.454;6.718;2022-07-03T02:37:47;18.10;99.90
20560;DHT22;10438;51.454;6.718;2022-07-03T02:40:27;18.00;99.90
20560;DHT22;10438;51.454;6.718;2022-07-03T02:46:10;17.90;99.90
20560;DHT22;10438;51.454;6.718;2022-07-03T02:49:11;17.90;99.90
20560;DHT22;10438;51.454;6.718;2022-07-03T02:51:41;17.90;99.90
20560;DHT22;10438;51.454;6.718;2022-07-03T02:54:13;17.70;99.90
20560;DHT22;10438;51.454;6.718;2022-07-03T02:57:08;17.70;99.90
20560;DHT22;10438;51.454;6.718;2022-07-03T03:02:51;17.60;99.90
20560;DHT22;10438;51.454;6.718;2022-07-03T03:05:45;17.50;99.90
20560;DHT22;10438;51.454;6.718;2022-07-03T03:08:15;17.50;99.90
20560;DHT22;10438;51.454;6.718;2022-07-03T03:10:43;17.40;99.90
20560;DHT22;10438;51.454;6.718;2022-07-03T03:13:12;17.40;99.90
20560;DHT22;10438;51.454;6.718;2022-07-03T03:15:39;17.50;99.90
20560;DHT22;10438;51.454;6.718;2022-07-03T03:18:11;17.60;99.90
20560;DHT22;10438;51.454;6.718;2022-07-03T03:20:38;17.70;99.90
20560;DHT22;10438;51.454;6.718;2022-07-03T03:25:34;17.90;99.90
20560;DHT22;10438;51.454;6.718;2022-07-03T03:27:59;18.00;99.90
20560;DHT22;10438;51.454;6.718;2022-07-03T03:30:25;18.10;99.90
20560;DHT22;10438;51.454;6.718;2022-07-03T03:32:51;18.00;99.90
20560;DHT22;10438;51.454;6.718;2022-07-03T03:35:17;18.00;99.90
20560;DHT22;10438;51.454;6.718;2022-07-03T03:37:43;18.10;99.90
20560;DHT22;10438;51.454;6.718;2022-07-03T03:40:10;18.00;99.90
20560;DHT22;10438;51.454;6.718;2022-07-03T03:42:36;18.00;99.90
20560;DHT22;10438;51.454;6.718;2022-07-03T03:45:02;18.00;99.90
20560;DHT22;10438;51.454;6.718;2022-07-03T03:47:28;18.00;99.90
20560;DHT22;10438;51.454;6.718;2022-07-03T03:49:54;17.90;99.90
20560;DHT22;10438;51.454;6.718;2022-07-03T03:52:20;17.90;99.90
20560;DHT22;10438;51.454;6.718;2022-07-03T03:54:45;17.80;99.90
20560;DHT22;10438;51.454;6.718;2022-07-03T03:57:22;17.70;99.90
20560;DHT22;10438;51.454;6.718;2022-07-03T03:59:48;17.70;99.90
20560;DHT22;10438;51.454;6.718;2022-07-03T04:02:15;17.70;99.90
20560;DHT22;10438;51.454;6.718;2022-07-03T04:04:41;17.80;99.90
20560;DHT22;10438;51.454;6.718;2022-07-03T04:07:07;17.90;99.90
20560;DHT22;10438;51.454;6.718;2022-07-03T04:09:32;17.90;99.90
20560;DHT22;10438;51.454;6.718;2022-07-03T04:11:58;17.90;99.90
20560;DHT22;10438;51.454;6.718;2022-07-03T04:14:24;18.00;99.90
20560;DHT22;10438;51.454;6.718;2022-07-03T04:16:49;18.00;99.90
20560;DHT22;10438;51.454;6.718;2022-07-03T04:19:15;17.90;99.90
20560;DHT22;10438;51.454;6.718;2022-07-03T04:21:41;17.90;99.90
20560;DHT22;10438;51.454;6.718;2022-07-03T04:24:06;17.90;99.90
20560;DHT22;10438;51.454;6.718;2022-07-03T04:26:32;17.90;99.90
20560;DHT22;10438;51.454;6.718;2022-07-03T04:28:58;17.90;99.90
20560;DHT22;10438;51.454;6.718;2022-07-03T04:31:23;17.80;99.90
20560;DHT22;10438;51.454;6.718;2022-07-03T04:33:49;17.70;99.90
20560;DHT22;10438;51.454;6.718;2022-07-03T04:36:15;17.70;99.90
20560;DHT22;10438;51.454;6.718;2022-07-03T04:38:41;17.70;99.90
20560;DHT22;10438;51.454;6.718;2022-07-03T04:41:08;17.70;99.90
20560;DHT22;10438;51.454;6.718;2022-07-03T04:43:33;17.70;99.90
20560;DHT22;10438;51.454;6.718;2022-07-03T04:45:59;17.70;99.90
20560;DHT22;10438;51.454;6.718;2022-07-03T04:48:27;17.70;99.90
20560;DHT22;10438;51.454;6.718;2022-07-03T04:50:52;17.70;99.90
20560;DHT22;10438;51.454;6.718;2022-07-03T04:53:18;17.70;99.90
20560;DHT22;10438;51.454;6.718;2022-07-03T04:55:45;17.70;99.90
20560;DHT22;10438;51.454;6.718;2022-07-03T04:58:10;17.80;99.90
20560;DHT22;10438;51.454;6.718;2022-07-03T05:00:37;17.80;99.90
20560;DHT22;10438;51.454;6.718;2022-07-03T05:03:02;17.80;99.90
20560;DHT22;10438;51.454;6.718;2022-07-03T05:05:28;17.80;99.90
20560;DHT22;10438;51.454;6.718;2022-07-03T05:07:53;17.80;99.90
20560;DHT22;10438;51.454;6.718;2022-07-03T05:10:19;17.80;99.90
20560;DHT22;10438;51.454;6.718;2022-07-03T05:12:45;17.90;99.90
20560;DHT22;10438;51.454;6.718;2022-07-03T05:15:10;17.90;99.90
20560;DHT22;10438;51.454;6.718;2022-07-03T05:17:36;17.90;99.90
20560;DHT22;10438;51.454;6.718;2022-07-03T05:20:03;17.90;99.90
20560;DHT22;10438;51.454;6.718;2022-07-03T05:22:48;18.00;99.90
20560;DHT22;10438;51.454;6.718;2022-07-03T05:25:13;18.00;99.90
20560;DHT22;10438;51.454;6.718;2022-07-03T05:27:39;18.00;99.90
20560;DHT22;10438;51.454;6.718;2022-07-03T05:30:05;18.10;99.90
20560;DHT22;10438;51.454;6.718;2022-07-03T05:32:31;18.10;99.90
20560;DHT22;10438;51.454;6.718;2022-07-03T05:34:56;18.20;99.90
20560;DHT22;10438;51.454;6.718;2022-07-03T05:37:22;18.30;99.90
20560;DHT22;10438;51.454;6.718;2022-07-03T05:39:47;18.30;99.90
20560;DHT22;10438;51.454;6.718;2022-07-03T05:42:13;18.40;99.90
20560;DHT22;10438;51.454;6.718;2022-07-03T05:44:38;18.40;99.90
20560;DHT22;10438;51.454;6.718;2022-07-03T05:47:04;18.50;99.90
20560;DHT22;10438;51.454;6.718;2022-07-03T05:49:30;18.50;99.90
20560;DHT22;10438;51.454;6.718;2022-07-03T05:51:55;18.60;99.90
20560;DHT22;10438;51.454;6.718;2022-07-03T05:54:21;18.60;99.90
20560;DHT22;10438;51.454;6.718;2022-07-03T05:56:46;18.60;99.90
20560;DHT22;10438;51.454;6.718;2022-07-03T05:59:12;18.60;99.90
20560;DHT22;10438;51.454;6.718;2022-07-03T06:01:37;18.70;99.90
20560;DHT22;10438;51.454;6.718;2022-07-03T06:04:03;18.70;99.90
20560;DHT22;10438;51.454;6.718;2022-07-03T06:06:29;18.80;99.90
20560;DHT22;10438;51.454;6.718;2022-07-03T06:08:55;18.80;99.90
20560;DHT22;10438;51.454;6.718;2022-07-03T06:11:20;18.90;99.90
20560;DHT22;10438;51.454;6.718;2022-07-03T06:13:46;18.90;99.90
20560;DHT22;10438;51.454;6.718;2022-07-03T06:16:12;18.90;99.90
20560;DHT22;10438;51.454;6.718;2022-07-03T06:18:37;18.90;99.90
20560;DHT22;10438;51.454;6.718;2022-07-03T06:21:03;19.00;99.90
20560;DHT22;10438;51.454;6.718;2022-07-03T06:23:29;19.10;99.90
20560;DHT22;10438;51.454;6.718;2022-07-03T06:25:54;19.10;99.90
20560;DHT22;10438;51.454;6.718;2022-07-03T06:28:20;19.20;99.90
20560;DHT22;10438;51.454;6.718;2022-07-03T06:30:45;19.30;99.90
20560;DHT22;10438;51.454;6.718;2022-07-03T06:33:11;19.30;99.90
20560;DHT22;10438;51.454;6.718;2022-07-03T06:35:36;19.40;99.90
20560;DHT22;10438;51.454;6.718;2022-07-03T06:38:03;19.40;99.90
20560;DHT22;10438;51.454;6.718;2022-07-03T06:40:29;19.50;99.90
20560;DHT22;10438;51.454;6.718;2022-07-03T06:42:55;19.60;99.90
20560;DHT22;10438;51.454;6.718;2022-07-03T06:45:21;19.60;99.90
20560;DHT22;10438;51.454;6.718;2022-07-03T06:47:46;19.60;99.90
20560;DHT22;10438;51.454;6.718;2022-07-03T06:50:12;19.80;99.90
20560;DHT22;10438;51.454;6.718;2022-07-03T06:52:37;19.80;99.90
20560;DHT22;10438;51.454;6.718;2022-07-03T06:55:05;19.80;99.90
20560;DHT22;10438;51.454;6.718;2022-07-03T06:57:31;20.00;99.90
20560;DHT22;10438;51.454;6.718;2022-07-03T06:59:56;20.00;99.90
20560;DHT22;10438;51.454;6.718;2022-07-03T07:02:22;20.10;99.90
20560;DHT22;10438;51.454;6.718;2022-07-03T07:04:47;20.30;99.90
20560;DHT22;10438;51.454;6.718;2022-07-03T07:07:13;20.50;99.90
20560;DHT22;10438;51.454;6.718;2022-07-03T07:09:39;20.60;99.90
20560;DHT22;10438;51.454;6.718;2022-07-03T07:12:04;20.70;99.90
20560;DHT22;10438;51.454;6.718;2022-07-03T07:14:30;20.80;99.90
20560;DHT22;10438;51.454;6.718;2022-07-03T07:16:56;21.00;99.90
20560;DHT22;10438;51.454;6.718;2022-07-03T07:19:21;21.00;99.90
20560;DHT22;10438;51.454;6.718;2022-07-03T07:21:47;21.00;99.90
20560;DHT22;10438;51.454;6.718;2022-07-03T07:24:13;21.00;99.90
20560;DHT22;10438;51.454;6.718;2022-07-03T07:26:38;21.00;99.90
20560;DHT22;10438;51.454;6.718;2022-07-03T07:29:04;21.10;99.90
20560;DHT22;10438;51.454;6.718;2022-07-03T07:31:29;21.20;99.90
20560;DHT22;10438;51.454;6.718;2022-07-03T07:33:55;21.30;99.90
20560;DHT22;10438;51.454;6.718;2022-07-03T07:36:20;21.20;99.90
20560;DHT22;10438;51.454;6.718;2022-07-03T07:38:46;21.10;99.90
20560;DHT22;10438;51.454;6.718;2022-07-03T07:41:11;21.20;99.90
20560;DHT22;10438;51.454;6.718;2022-07-03T07:43:37;21.20;99.90
20560;DHT22;10438;51.454;6.718;2022-07-03T07:46:02;21.40;99.90
20560;DHT22;10438;51.454;6.718;2022-07-03T07:48:28;21.40;99.90
20560;DHT22;10438;51.454;6.718;2022-07-03T07:50:53;21.40;99.90
20560;DHT22;10438;51.454;6.718;2022-07-03T07:53:19;21.50;99.90
20560;DHT22;10438;51.454;6.718;2022-07-03T07:55:45;21.60;99.90
20560;DHT22;10438;51.454;6.718;2022-07-03T07:58:10;21.60;99.90
20560;DHT22;10438;51.454;6.718;2022-07-03T08:00:36;21.70;99.90
20560;DHT22;10438;51.454;6.718;2022-07-03T08:03:01;21.80;99.90
20560;DHT22;10438;51.454;6.718;2022-07-03T08:05:45;21.80;99.90
20560;DHT22;10438;51.454;6.718;2022-07-03T08:08:16;21.90;99.90
20560;DHT22;10438;51.454;6.718;2022-07-03T08:13:08;22.10;99.90
20560;DHT22;10438;51.454;6.718;2022-07-03T08:15:34;22.20;99.90
20560;DHT22;10438;51.454;6.718;2022-07-03T08:18:01;22.30;99.90
20560;DHT22;10438;51.454;6.718;2022-07-03T08:20:27;22.30;99.30
20560;DHT22;10438;51.454;6.718;2022-07-03T08:22:53;22.40;99.20
20560;DHT22;10438;51.454;6.718;2022-07-03T08:25:19;22.30;99.70
20560;DHT22;10438;51.454;6.718;2022-07-03T08:27:44;22.30;97.90
20560;DHT22;10438;51.454;6.718;2022-07-03T08:30:10;22.30;99.90
20560;DHT22;10438;51.454;6.718;2022-07-03T08:32:36;22.50;99.90
20560;DHT22;10438;51.454;6.718;2022-07-03T08:35:02;22.70;97.70
20560;DHT22;10438;51.454;6.718;2022-07-03T08:37:27;22.60;97.40
20560;DHT22;10438;51.454;6.718;2022-07-03T08:39:53;22.80;99.90
20560;DHT22;10438;51.454;6.718;2022-07-03T08:42:19;22.80;99.00
20560;DHT22;10438;51.454;6.718;2022-07-03T08:44:46;22.80;96.50
20560;DHT22;10438;51.454;6.718;2022-07-03T08:47:12;22.90;93.80
20560;DHT22;10438;51.454;6.718;2022-07-03T08:49:39;22.90;93.60
20560;DHT22;10438;51.454;6.718;2022-07-03T08:52:05;22.90;91.20
20560;DHT22;10438;51.454;6.718;2022-07-03T08:54:33;23.00;92.00
20560;DHT22;10438;51.454;6.718;2022-07-03T08:57:00;23.00;97.70
20560;DHT22;10438;51.454;6.718;2022-07-03T08:59:32;23.10;96.90
20560;DHT22;10438;51.454;6.718;2022-07-03T09:01:59;23.20;92.70
20560;DHT22;10438;51.454;6.718;2022-07-03T09:04:25;23.30;91.00
20560;DHT22;10438;51.454;6.718;2022-07-03T09:06:51;23.50;91.70
20560;DHT22;10438;51.454;6.718;2022-07-03T09:09:17;23.40;79.00
20560;DHT22;10438;51.454;6.718;2022-07-03T09:11:43;23.40;80.40
20560;DHT22;10438;51.454;6.718;2022-07-03T09:14:09;23.60;92.40
20560;DHT22;10438;51.454;6.718;2022-07-03T09:16:35;23.70;80.20
20560;DHT22;10438;51.454;6.718;2022-07-03T09:19:02;23.60;87.80
20560;DHT22;10438;51.454;6.718;2022-07-03T09:21:40;23.70;81.70
20560;DHT22;10438;51.454;6.718;2022-07-03T09:24:09;23.70;85.00
20560;DHT22;10438;51.454;6.718;2022-07-03T09:26:35;23.90;93.90
20560;DHT22;10438;51.454;6.718;2022-07-03T09:29:02;23.80;84.10
20560;DHT22;10438;51.454;6.718;2022-07-03T09:31:29;24.10;99.90
20560;DHT22;10438;51.454;6.718;2022-07-03T09:34:02;24.10;77.70
20560;DHT22;10438;51.454;6.718;2022-07-03T09:36:46;24.10;91.80
20560;DHT22;10438;51.454;6.718;2022-07-03T09:39:20;24.30;78.90
20560;DHT22;10438;51.454;6.718;2022-07-03T09:42:01;24.50;76.30
20560;DHT22;10438;51.454;6.718;2022-07-03T09:44:40;24.30;53.80
20560;DHT22;10438;51.454;6.718;2022-07-03T09:47:16;24.30;57.30
20560;DHT22;10438;51.454;6.718;2022-07-03T09:50:02;24.20;55.00
20560;DHT22;10438;51.454;6.718;2022-07-03T09:57:39;24.70;55.30
20560;DHT22;10438;51.454;6.718;2022-07-03T10:00:16;24.90;68.40
20560;DHT22;10438;51.454;6.718;2022-07-03T10:05:27;25.20;53.50
20560;DHT22;10438;51.454;6.718;2022-07-03T10:08:04;24.90;39.30
20560;DHT22;10438;51.454;6.718;2022-07-03T10:10:32;24.60;42.90
20560;DHT22;10438;51.454;6.718;2022-07-03T10:12:59;24.60;57.20
20560;DHT22;10438;51.454;6.718;2022-07-03T10:15:28;24.40;41.80
20560;DHT22;10438;51.454;6.718;2022-07-03T10:17:55;24.30;41.30
20560;DHT22;10438;51.454;6.718;2022-07-03T10:20:27;24.30;49.60
20560;DHT22;10438;51.454;6.718;2022-07-03T10:22:54;24.60;46.30
20560;DHT22;10438;51.454;6.718;2022-07-03T10:25:20;24.50;45.80
20560;DHT22;10438;51.454;6.718;2022-07-03T10:27:46;24.70;52.80
20560;DHT22;10438;51.454;6.718;2022-07-03T10:30:15;24.80;48.40
20560;DHT22;10438;51.454;6.718;2022-07-03T10:32:43;25.00;52.80
20560;DHT22;10438;51.454;6.718;2022-07-03T10:35:09;25.30;44.10
20560;DHT22;10438;51.454;6.718;2022-07-03T10:37:46;25.00;42.10
20560;DHT22;10438;51.454;6.718;2022-07-03T10:40:27;24.70;44.60
20560;DHT22;10438;51.454;6.718;2022-07-03T10:43:28;24.80;44.30
20560;DHT22;10438;51.454;6.718;2022-07-03T10:46:17;25.00;49.40
20560;DHT22;10438;51.454;6.718;2022-07-03T10:49:03;25.20;44.50
20560;DHT22;10438;51.454;6.718;2022-07-03T10:51:59;25.50;45.80
20560;DHT22;10438;51.454;6.718;2022-07-03T10:54:32;25.70;41.00
20560;DHT22;10438;51.454;6.718;2022-07-03T10:57:09;25.70;41.20
20560;DHT22;10438;51.454;6.718;2022-07-03T11:07:27;26.00;28.90
20560;DHT22;10438;51.454;6.718;2022-07-03T11:13:03;26.10;30.00
20560;DHT22;10438;51.454;6.718;2022-07-03T11:25:43;26.20;22.30
20560;DHT22;10438;51.454;6.718;2022-07-03T11:33:45;26.10;25.00
20560;DHT22;10438;51.454;6.718;2022-07-03T11:38:40;25.50;25.00
20560;DHT22;10438;51.454;6.718;2022-07-03T11:41:08;25.60;34.10
20560;DHT22;10438;51.454;6.718;2022-07-03T11:43:34;25.80;25.10
20560;DHT22;10438;51.454;6.718;2022-07-03T11:46:00;25.40;23.00
20560;DHT22;10438;51.454;6.718;2022-07-03T11:48:27;25.30;25.50
20560;DHT22;10438;51.454;6.718;2022-07-03T11:51:02;25.30;25.20
20560;DHT22;10438;51.454;6.718;2022-07-03T11:53:32;25.30;25.30
20560;DHT22;10438;51.454;6.718;2022-07-03T11:56:00;25.40;28.50
20560;DHT22;10438;51.454;6.718;2022-07-03T11:58:46;25.20;23.20
20560;DHT22;10438;51.454;6.718;2022-07-03T12:01:33;25.10;24.30
20560;DHT22;10438;51.454;6.718;2022-07-03T12:04:10;25.30;24.50
20560;DHT22;10438;51.454;6.718;2022-07-03T12:09:22;26.20;23.90
20560;DHT22;10438;51.454;6.718;2022-07-03T12:12:08;26.40;21.10
20560;DHT22;10438;51.454;6.718;2022-07-03T12:14:40;26.50;21.60
20560;DHT22;10438;51.454;6.718;2022-07-03T12:17:07;26.60;17.00
20560;DHT22;10438;51.454;6.718;2022-07-03T12:19:32;26.80;20.70
20560;DHT22;10438;51.454;6.718;2022-07-03T12:21:58;26.90;17.20
20560;DHT22;10438;51.454;6.718;2022-07-03T12:24:24;27.30;21.90
20560;DHT22;10438;51.454;6.718;2022-07-03T12:26:49;27.20;13.30
20560;DHT22;10438;51.454;6.718;2022-07-03T12:29:16;27.40;14.90
20560;DHT22;10438;51.454;6.718;2022-07-03T12:31:45;27.60;16.40
20560;DHT22;10438;51.454;6.718;2022-07-03T12:34:12;27.50;12.50
20560;DHT22;10438;51.454;6.718;2022-07-03T12:36:38;27.70;14.40
20560;DHT22;10438;51.454;6.718;2022-07-03T12:39:04;27.60;14.00
20560;DHT22;10438;51.454;6.718;2022-07-03T12:41:30;27.30;12.40
20560;DHT22;10438;51.454;6.718;2022-07-03T12:43:58;27.20;16.70
20560;DHT22;10438;51.454;6.718;2022-07-03T12:49:00;27.30;15.20
20560;DHT22;10438;51.454;6.718;2022-07-03T12:51:42;27.90;9.90
20560;DHT22;10438;51.454;6.718;2022-07-03T12:54:16;28.10;15.20
20560;DHT22;10438;51.454;6.718;2022-07-03T12:57:02;28.40;13.40
20560;DHT22;10438;51.454;6.718;2022-07-03T13:00:02;28.60;9.20
20560;DHT22;10438;51.454;6.718;2022-07-03T13:02:28;28.80;8.00
20560;DHT22;10438;51.454;6.718;2022-07-03T13:04:54;28.80;5.30
20560;DHT22;10438;51.454;6.718;2022-07-03T13:07:19;28.80;6.60
20560;DHT22;10438;51.454;6.718;2022-07-03T13:09:52;28.90;5.20
20560;DHT22;10438;51.454;6.718;2022-07-03T13:12:22;29.20;5.30
20560;DHT22;10438;51.454;6.718;2022-07-03T13:15:01;29.10;2.90
20560;DHT22;10438;51.454;6.718;2022-07-03T13:17:56;28.00;4.00
20560;DHT22;10438;51.454;6.718;2022-07-03T13:20:23;27.10;7.10
20560;DHT22;10438;51.454;6.718;2022-07-03T13:22:50;27.20;7.10
20560;DHT22;10438;51.454;6.718;2022-07-03T13:25:15;27.00;7.40
20560;DHT22;10438;51.454;6.718;2022-07-03T13:27:41;27.20;9.50
20560;DHT22;10438;51.454;6.718;2022-07-03T13:30:09;27.10;12.80
20560;DHT22;10438;51.454;6.718;2022-07-03T13:32:34;27.70;14.50
20560;DHT22;10438;51.454;6.718;2022-07-03T13:35:00;28.50;8.20
20560;DHT22;10438;51.454;6.718;2022-07-03T13:37:25;28.70;7.50
20560;DHT22;10438;51.454;6.718;2022-07-03T13:39:51;28.30;7.00
20560;DHT22;10438;51.454;6.718;2022-07-03T13:42:17;28.10;9.60
20560;DHT22;10438;51.454;6.718;2022-07-03T13:44:43;27.80;8.10
20560;DHT22;10438;51.454;6.718;2022-07-03T13:47:08;27.50;12.00
20560;DHT22;10438;51.454;6.718;2022-07-03T13:49:34;27.50;12.00
20560;DHT22;10438;51.454;6.718;2022-07-03T13:52:00;27.30;11.60
20560;DHT22;10438;51.454;6.718;2022-07-03T13:54:25;27.10;12.80
20560;DHT22;10438;51.454;6.718;2022-07-03T13:56:51;26.80;13.30
20560;DHT22;10438;51.454;6.718;2022-07-03T13:59:17;26.70;16.50
20560;DHT22;10438;51.454;6.718;2022-07-03T14:01:43;26.30;12.00
20560;DHT22;10438;51.454;6.718;2022-07-03T14:04:09;26.30;12.90
20560;DHT22;10438;51.454;6.718;2022-07-03T14:06:35;26.40;13.50
20560;DHT22;10438;51.454;6.718;2022-07-03T14:09:01;26.30;15.20
20560;DHT22;10438;51.454;6.718;2022-07-03T14:11:27;26.30;16.20
20560;DHT22;10438;51.454;6.718;2022-07-03T14:13:53;26.10;14.40
20560;DHT22;10438;51.454;6.718;2022-07-03T14:16:18;25.90;14.40
20560;DHT22;10438;51.454;6.718;2022-07-03T14:18:44;25.80;15.30
20560;DHT22;10438;51.454;6.718;2022-07-03T14:21:10;25.60;19.00
20560;DHT22;10438;51.454;6.718;2022-07-03T14:23:36;25.70;15.50
20560;DHT22;10438;51.454;6.718;2022-07-03T14:26:01;25.60;13.30
20560;DHT22;10438;51.454;6.718;2022-07-03T14:28:28;25.60;15.30
20560;DHT22;10438;51.454;6.718;2022-07-03T14:31:12;25.80;12.30
20560;DHT22;10438;51.454;6.718;2022-07-03T14:33:54;26.20;14.90
20560;DHT22;10438;51.454;6.718;2022-07-03T14:36:21;26.70;11.80
20560;DHT22;10438;51.454;6.718;2022-07-03T14:38:46;27.00;10.40
20560;DHT22;10438;51.454;6.718;2022-07-03T14:41:12;27.60;10.50
20560;DHT22;10438;51.454;6.718;2022-07-03T14:43:38;28.00;7.40
20560;DHT22;10438;51.454;6.718;2022-07-03T14:46:03;28.40;6.60
20560;DHT22;10438;51.454;6.718;2022-07-03T14:48:29;28.10;5.00
20560;DHT22;10438;51.454;6.718;2022-07-03T14:50:55;27.40;6.30
20560;DHT22;10438;51.454;6.718;2022-07-03T14:53:21;27.20;8.90
20560;DHT22;10438;51.454;6.718;2022-07-03T14:55:48;27.10;10.20
20560;DHT22;10438;51.454;6.718;2022-07-03T14:58:19;27.70;7.30
20560;DHT22;10438;51.454;6.718;2022-07-03T15:00:52;28.20;8.00
20560;DHT22;10438;51.454;6.718;2022-07-03T15:05:55;27.50;5.30
20560;DHT22;10438;51.454;6.718;2022-07-03T15:08:48;26.70;7.40
20560;DHT22;10438;51.454;6.718;2022-07-03T15:11:23;26.20;9.70
20560;DHT22;10438;51.454;6.718;2022-07-03T15:14:11;25.70;9.80
20560;DHT22;10438;51.454;6.718;2022-07-03T15:16:40;25.50;12.20
20560;DHT22;10438;51.454;6.718;2022-07-03T15:19:07;25.30;14.10
20560;DHT22;10438;51.454;6.718;2022-07-03T15:21:36;25.30;14.00
20560;DHT22;10438;51.454;6.718;2022-07-03T15:24:05;25.10;17.20
20560;DHT22;10438;51.454;6.718;2022-07-03T15:26:32;24.90;15.80
20560;DHT22;10438;51.454;6.718;2022-07-03T15:28:59;24.90;18.30
20560;DHT22;10438;51.454;6.718;2022-07-03T15:31:27;24.90;19.30
20560;DHT22;10438;51.454;6.718;2022-07-03T15:33:54;25.30;23.00
20560;DHT22;10438;51.454;6.718;2022-07-03T15:36:23;26.00;14.90
20560;DHT22;10438;51.454;6.718;2022-07-03T15:39:02;26.90;12.10
20560;DHT22;10438;51.454;6.718;2022-07-03T15:41:43;27.80;12.60
20560;DHT22;10438;51.454;6.718;2022-07-03T15:44:13;28.50;6.50
20560;DHT22;10438;51.454;6.718;2022-07-03T15:49:30;27.80;5.40
20560;DHT22;10438;51.454;6.718;2022-07-03T15:52:18;27.30;5.90
20560;DHT22;10438;51.454;6.718;2022-07-03T15:55:07;27.40;9.60
20560;DHT22;10438;51.454;6.718;2022-07-03T15:57:49;27.70;5.20
20560;DHT22;10438;51.454;6.718;2022-07-03T16:00:22;27.40;7.60
20560;DHT22;10438;51.454;6.718;2022-07-03T16:05:26;27.90;7.20
20560;DHT22;10438;51.454;6.718;2022-07-03T16:07:53;28.70;7.00
20560;DHT22;10438;51.454;6.718;2022-07-03T16:10:20;28.50;5.00
20560;DHT22;10438;51.454;6.718;2022-07-03T16:12:47;27.90;4.90
20560;DHT22;10438;51.454;6.718;2022-07-03T16:15:19;27.20;7.10
20560;DHT22;10438;51.454;6.718;2022-07-03T16:17:46;27.10;7.40
20560;DHT22;10438;51.454;6.718;2022-07-03T16:20:12;27.20;6.00
20560;DHT22;10438;51.454;6.718;2022-07-03T16:22:39;27.10;5.70
20560;DHT22;10438;51.454;6.718;2022-07-03T16:25:07;27.50;6.80
20560;DHT22;10438;51.454;6.718;2022-07-03T16:27:34;27.80;3.80
20560;DHT22;10438;51.454;6.718;2022-07-03T16:30:00;27.90;3.50
20560;DHT22;10438;51.454;6.718;2022-07-03T16:32:36;27.90;5.30
20560;DHT22;10438;51.454;6.718;2022-07-03T16:35:05;27.90;1.40
20560;DHT22;10438;51.454;6.718;2022-07-03T16:37:43;27.70;1.20
20560;DHT22;10438;51.454;6.718;2022-07-03T16:40:10;27.10;1.80
20560;DHT22;10438;51.454;6.718;2022-07-03T16:42:39;26.30;4.60
20560;DHT22;10438;51.454;6.718;2022-07-03T16:45:09;25.90;5.10
20560;DHT22;10438;51.454;6.718;2022-07-03T16:47:39;26.00;5.10
20560;DHT22;10438;51.454;6.718;2022-07-03T16:50:07;26.20;4.20
20560;DHT22;10438;51.454;6.718;2022-07-03T16:52:34;26.30;3.60
20560;DHT22;10438;51.454;6.718;2022-07-03T16:55:03;25.90;3.40
20560;DHT22;10438;51.454;6.718;2022-07-03T16:57:29;25.30;4.20
20560;DHT22;10438;51.454;6.718;2022-07-03T16:59:55;24.90;7.30